This is the latest recevied weather packets stored in our database for station/object G6LTT-13. If no packets are shown the sender has not sent any weather packets the latest 10 day(s).
| Time | Temp. | Humidity | Pressure | Rain* | Wind** | Luminosity | Snow |
|---|---|---|---|---|---|---|---|
| 1787973707 | 17.22° C | 85% | 1035.7 hPa | 0 mm | - | - | - |
| 1787971907 | 17.22° C | 85% | 1036.1 hPa | 0 mm | - | - | - |
| 1787970107 | 17.22° C | 85% | 1035.7 hPa | 0 mm | - | - | - |
| 1787968307 | 17.22° C | 85% | 1036.1 hPa | 0 mm | - | - | - |
| 1787966507 | 17.22° C | 85% | 1036 hPa | 0 mm | - | - | - |
| 1787964707 | 17.22° C | 86% | 1036 hPa | 0 mm | - | - | - |
| 1787962907 | 17.22° C | 85% | 1036.1 hPa | 0 mm | - | - | - |
| 1787961107 | 17.22° C | 85% | 1036.4 hPa | 0 mm | - | - | - |
| 1787959307 | 17.22° C | 85% | 1036.3 hPa | 0 mm | - | - | - |
| 1787957507 | 17.22° C | 85% | 1036.3 hPa | 0 mm | - | - | - |
| 1787955707 | 17.22° C | 85% | 1036.2 hPa | 0 mm | - | - | - |
| 1787953907 | 17.22° C | 86% | 1036.1 hPa | 0 mm | - | - | - |
| 1787952107 | 17.22° C | 86% | 1036.1 hPa | 0 mm | - | - | - |
| 1787950307 | 16.67° C | 92% | 1035.9 hPa | 0 mm | - | - | - |
| 1787948507 | 16.67° C | 92% | 1035.9 hPa | 0.51 mm | - | - | - |
| 1787946707 | 16.67° C | 91% | 1035.6 hPa | 0.51 mm | - | - | - |
| 1787944907 | 17.78° C | 89% | 1035.7 hPa | 1.02 mm | - | - | - |
| 1787943107 | 17.78° C | 88% | 1035.3 hPa | 1.27 mm | - | - | - |
| 1787941307 | 18.89° C | 78% | 1034.9 hPa | 0.25 mm | - | - | - |
| 1787939507 | 21.11° C | 66% | 1034.5 hPa | 0 mm | - | - | - |
| 1787937707 | 21.67° C | 64% | 1034.2 hPa | 0 mm | - | - | - |
| 1787935907 | 21.11° C | 63% | 1034.4 hPa | 0 mm | - | - | - |
| 1787934107 | 20.56° C | 68% | 1034.7 hPa | 0 mm | - | - | - |
| 1787932307 | 23.33° C | 54% | 1034.3 hPa | 0 mm | - | - | - |
| 1787930507 | 22.22° C | 59% | 1034 hPa | 0 mm | - | - | - |
* Rain latest hour (hover to see other rain measurements)
** Current wind speed in m/s (hover to see current wind gust speed)